Time;durP1;ratioP1;P1;durP2;ratioP2;P2;SDS_P1;SDS_P2;PMS_P1;PMS_P2;Temp;Humidity;BMP_temperature;BMP_pressure;BME280_temperature;BME280_humidity;BME280_pressure;Samples;Min_cycle;Max_cycle;Signal;HPM_P1;HPM_P2
2022/05/25 00:01:18;;;;;;;7.47;4.60;;;14.10;99.90;;;;;;5064867;28;20553;-68
2022/05/25 00:03:44;;;;;;;5.03;4.45;;;14.00;99.90;;;;;;5062818;28;20032;-69
2022/05/25 00:06:10;;;;;;;5.47;4.43;;;14.00;99.90;;;;;;5064833;28;20458;-69
2022/05/25 00:08:36;;;;;;;7.05;4.57;;;14.00;99.90;;;;;;5062859;28;20467;-68
2022/05/25 00:11:02;;;;;;;5.20;4.70;;;14.00;99.90;;;;;;5065873;28;20017;-69
2022/05/25 00:13:28;;;;;;;5.15;4.75;;;14.00;99.90;;;;;;5064157;28;20503;-68
2022/05/25 00:15:53;;;;;;;5.82;5.32;;;14.00;99.90;;;;;;5063849;28;20044;-69
2022/05/25 00:18:19;;;;;;;5.25;4.75;;;14.00;99.90;;;;;;5065799;28;20070;-69
2022/05/25 00:20:45;;;;;;;5.75;5.13;;;14.00;99.90;;;;;;5063929;28;20389;-69
2022/05/25 00:23:11;;;;;;;5.38;4.60;;;13.90;99.90;;;;;;5064840;28;20008;-69
2022/05/25 00:25:38;;;;;;;6.30;4.63;;;13.90;99.90;;;;;;5069046;28;20095;-68
2022/05/25 00:28:06;;;;;;;5.95;4.50;;;13.90;99.90;;;;;;5065012;28;20060;-68
2022/05/25 00:30:32;;;;;;;7.45;4.82;;;13.90;99.90;;;;;;5061962;28;20048;-69
2022/05/25 00:33:00;;;;;;;5.38;4.88;;;13.80;99.90;;;;;;5063291;28;20017;-69
2022/05/25 00:35:28;;;;;;;11.63;4.93;;;13.90;99.90;;;;;;5064069;28;20013;-70
2022/05/25 00:37:54;;;;;;;5.65;5.05;;;13.80;99.90;;;;;;5072487;28;20032;-70
2022/05/25 00:40:41;;;;;;;6.30;4.85;;;13.80;99.90;;;;;;5063344;28;20025;-69
2022/05/25 00:43:07;;;;;;;7.70;6.03;;;13.70;99.90;;;;;;5064053;28;20091;-69
2022/05/25 00:45:39;;;;;;;7.57;5.80;;;13.70;99.90;;;;;;5064642;28;20428;-69
2022/05/25 00:48:08;;;;;;;6.43;5.78;;;13.70;99.90;;;;;;5080937;28;20013;-69
2022/05/25 00:51:12;;;;;;;7.05;4.68;;;13.70;99.90;;;;;;5064841;28;20036;-70
2022/05/25 00:53:21;;;;;;;6.35;5.40;;;13.60;99.90;;;;;;5065007;28;20119;-69
2022/05/25 00:55:47;;;;;;;10.85;5.45;;;13.60;99.90;;;;;;5063785;28;20025;-69
2022/05/25 00:58:13;;;;;;;6.53;5.93;;;13.60;99.90;;;;;;5061935;28;20028;-69
2022/05/25 01:00:38;;;;;;;7.03;5.38;;;13.60;99.90;;;;;;5065434;28;20016;-69
2022/05/25 01:03:11;;;;;;;7.60;5.00;;;13.60;99.90;;;;;;5063070;28;20028;-69
2022/05/25 01:06:01;;;;;;;6.03;5.55;;;13.50;99.90;;;;;;5062590;28;20033;-70
2022/05/25 01:08:59;;;;;;;7.70;5.90;;;13.40;99.90;;;;;;5064425;28;20460;-69
2022/05/25 01:11:35;;;;;;;6.72;6.00;;;13.40;99.90;;;;;;5063159;28;20021;-69
2022/05/25 01:14:11;;;;;;;12.75;5.72;;;13.40;99.90;;;;;;5062909;28;20112;-69
2022/05/25 01:17:01;;;;;;;6.60;5.93;;;13.40;99.90;;;;;;5061684;28;20116;-68
2022/05/25 01:19:41;;;;;;;5.90;5.30;;;13.40;99.90;;;;;;5065304;28;20078;-68
2022/05/25 01:22:19;;;;;;;10.38;6.10;;;13.40;99.90;;;;;;5063677;28;20032;-68
2022/05/25 01:25:06;;;;;;;7.65;6.22;;;13.40;99.90;;;;;;5068673;28;20116;-68
2022/05/25 01:27:47;;;;;;;8.70;6.80;;;13.40;99.90;;;;;;5074032;28;20427;-68
2022/05/25 01:30:39;;;;;;;7.35;6.30;;;13.40;99.90;;;;;;5067634;28;20451;-68
2022/05/25 01:33:35;;;;;;;7.82;7.07;;;13.40;99.90;;;;;;5049955;28;20036;-68
2022/05/25 01:36:11;;;;;;;7.15;6.45;;;13.40;99.90;;;;;;5054855;28;20033;-68
2022/05/25 01:38:47;;;;;;;6.95;6.35;;;13.40;99.90;;;;;;5053613;28;20409;-68
2022/05/25 01:41:12;;;;;;;7.47;6.75;;;13.40;99.90;;;;;;5053249;28;20083;-70
2022/05/25 01:43:50;;;;;;;9.07;7.15;;;13.40;99.90;;;;;;5053289;28;20029;-70
2022/05/25 01:46:22;;;;;;;10.35;6.90;;;13.40;99.90;;;;;;5053574;28;20029;-70
2022/05/25 01:48:49;;;;;;;7.75;6.88;;;13.40;99.90;;;;;;5053445;28;20535;-70
2022/05/25 01:51:20;;;;;;;11.82;7.00;;;13.40;99.90;;;;;;5072140;28;20139;-70
2022/05/25 01:53:51;;;;;;;10.13;6.70;;;13.40;99.90;;;;;;5072918;28;20447;-70
2022/05/25 01:56:20;;;;;;;11.80;7.10;;;13.30;99.90;;;;;;5073240;28;20029;-70
2022/05/25 01:58:52;;;;;;;8.65;6.93;;;13.30;99.90;;;;;;5071214;28;20100;-70
2022/05/25 02:01:20;;;;;;;10.53;7.37;;;13.30;99.90;;;;;;5072887;28;20070;-70
2022/05/25 02:07:04;;;;;;;9.07;6.63;;;13.30;99.90;;;;;;5073205;28;20117;-69
2022/05/25 02:09:56;;;;;;;11.80;7.28;;;13.20;99.90;;;;;;5073157;28;20468;-69
2022/05/25 02:12:49;;;;;;;9.18;7.57;;;13.30;99.90;;;;;;5072791;28;20056;-69
2022/05/25 02:15:36;;;;;;;12.68;7.28;;;13.30;99.90;;;;;;5053101;28;20043;-69
2022/05/25 02:18:13;;;;;;;9.02;7.65;;;13.20;99.90;;;;;;5052424;28;20036;-69
2022/05/25 02:20:51;;;;;;;11.75;8.20;;;13.20;99.90;;;;;;5053014;28;20025;-69
2022/05/25 02:23:22;;;;;;;13.43;7.78;;;13.20;99.90;;;;;;5052241;28;20036;-69
2022/05/25 02:25:58;;;;;;;11.98;8.13;;;13.20;99.90;;;;;;5067570;28;20112;-69
2022/05/25 02:28:30;;;;;;;10.57;7.88;;;13.20;99.90;;;;;;5068411;28;20035;-69
2022/05/25 02:30:58;;;;;;;14.10;8.07;;;13.20;99.90;;;;;;5053039;28;20044;-69
2022/05/25 02:33:43;;;;;;;12.32;8.10;;;13.20;99.90;;;;;;5052499;28;20028;-69
2022/05/25 02:36:10;;;;;;;8.88;7.43;;;13.20;99.90;;;;;;5052997;28;20017;-70
2022/05/25 02:38:38;;;;;;;8.23;7.43;;;13.10;99.90;;;;;;5051667;28;20108;-69
2022/05/25 02:41:10;;;;;;;11.68;6.68;;;13.10;99.90;;;;;;5052578;28;20079;-70
2022/05/25 02:43:37;;;;;;;9.57;7.60;;;13.10;99.90;;;;;;5056401;28;20037;-70
2022/05/25 02:46:05;;;;;;;12.80;7.07;;;13.20;99.90;;;;;;5052740;28;20029;-69
2022/05/25 02:48:30;;;;;;;10.95;6.88;;;13.10;99.90;;;;;;5059371;28;20025;-69
2022/05/25 02:50:56;;;;;;;9.25;6.80;;;13.10;99.90;;;;;;5056476;28;20112;-69
2022/05/25 02:53:22;;;;;;;9.77;6.97;;;13.10;99.90;;;;;;5051287;28;20013;-69
2022/05/25 02:55:49;;;;;;;7.47;6.75;;;13.00;99.90;;;;;;5052645;28;20036;-69
2022/05/25 02:58:15;;;;;;;9.52;7.13;;;13.00;99.90;;;;;;5052323;28;20040;-70
2022/05/25 03:00:41;;;;;;;8.75;6.90;;;12.90;99.90;;;;;;5071866;28;20366;-70
2022/05/25 03:03:06;;;;;;;9.98;6.53;;;13.00;99.90;;;;;;5071837;28;20020;-70
2022/05/25 03:05:32;;;;;;;7.47;6.43;;;12.90;99.90;;;;;;5052234;28;20119;-70
2022/05/25 03:07:57;;;;;;;9.80;7.00;;;12.90;99.90;;;;;;5051999;28;20021;-70
2022/05/25 03:10:23;;;;;;;8.77;6.25;;;12.90;99.90;;;;;;5052613;28;20501;-69
2022/05/25 03:12:49;;;;;;;10.15;6.50;;;12.80;99.90;;;;;;5061624;28;20024;-69
2022/05/25 03:15:20;;;;;;;9.32;6.53;;;12.80;99.90;;;;;;5072487;28;20119;-70
2022/05/25 03:17:46;;;;;;;9.68;7.00;;;12.80;99.90;;;;;;5072121;28;20469;-70
2022/05/25 03:20:12;;;;;;;10.38;6.85;;;12.80;99.90;;;;;;5072563;28;20035;-70
2022/05/25 03:22:39;;;;;;;12.35;6.20;;;12.80;99.90;;;;;;5072172;28;20062;-70
2022/05/25 03:25:05;;;;;;;9.25;6.35;;;12.80;99.90;;;;;;5053884;28;20041;-70
2022/05/25 03:27:31;;;;;;;6.72;5.72;;;12.80;99.90;;;;;;5052040;28;20025;-70
2022/05/25 03:29:57;;;;;;;10.50;6.63;;;12.80;99.90;;;;;;5052600;28;20431;-70
2022/05/25 03:32:22;;;;;;;8.60;6.43;;;12.80;99.90;;;;;;5055349;28;20075;-70
2022/05/25 03:34:48;;;;;;;11.90;5.93;;;12.70;99.90;;;;;;5055968;28;20033;-70
2022/05/25 03:37:14;;;;;;;8.98;5.97;;;12.70;99.90;;;;;;5055891;28;20033;-70
2022/05/25 03:39:40;;;;;;;8.90;6.10;;;12.70;99.90;;;;;;5055902;28;20106;-69
2022/05/25 03:42:07;;;;;;;11.52;6.82;;;12.70;99.90;;;;;;5055432;28;20035;-70
2022/05/25 03:44:35;;;;;;;11.70;7.30;;;12.70;99.90;;;;;;5055118;28;20045;-69
2022/05/25 03:47:01;;;;;;;10.02;5.80;;;12.60;99.90;;;;;;5055800;28;20017;-69
2022/05/25 03:49:27;;;;;;;9.88;6.88;;;12.70;99.90;;;;;;5073008;28;20032;-69
2022/05/25 03:51:53;;;;;;;10.15;6.40;;;12.60;99.90;;;;;;5072737;28;20027;-70
2022/05/25 03:54:19;;;;;;;17.05;7.07;;;12.60;99.90;;;;;;5075679;28;20035;-70
2022/05/25 03:56:44;;;;;;;15.25;6.53;;;12.60;99.90;;;;;;5075228;28;20028;-70
2022/05/25 03:59:10;;;;;;;13.10;6.95;;;12.70;99.90;;;;;;5071657;28;20032;-70
2022/05/25 04:01:36;;;;;;;14.13;7.07;;;12.60;99.90;;;;;;5072331;28;20059;-70
2022/05/25 04:04:03;;;;;;;10.73;7.00;;;12.60;99.90;;;;;;5066044;28;20040;-70
2022/05/25 04:06:29;;;;;;;12.98;6.85;;;12.60;99.90;;;;;;5053813;28;20021;-70
2022/05/25 04:08:54;;;;;;;15.90;7.35;;;12.60;99.90;;;;;;5053347;28;20035;-70
2022/05/25 04:11:21;;;;;;;14.90;8.00;;;12.60;99.90;;;;;;5055394;28;20035;-70
2022/05/25 04:13:46;;;;;;;12.05;7.13;;;12.60;99.90;;;;;;5055004;28;20406;-70
2022/05/25 04:16:12;;;;;;;9.73;7.20;;;12.60;99.90;;;;;;5054510;28;20504;-70
2022/05/25 04:18:38;;;;;;;14.98;7.72;;;12.60;99.90;;;;;;5054783;28;20083;-70
2022/05/25 04:21:04;;;;;;;15.50;9.40;;;12.60;99.90;;;;;;5055247;28;20025;-70
2022/05/25 04:23:29;;;;;;;13.68;8.48;;;12.60;99.90;;;;;;5054120;28;20108;-70
2022/05/25 04:25:56;;;;;;;13.85;8.27;;;12.60;99.90;;;;;;5070278;28;20086;-69
2022/05/25 04:28:22;;;;;;;15.55;8.77;;;12.60;99.90;;;;;;5074153;28;20025;-70
2022/05/25 04:30:48;;;;;;;12.23;8.30;;;12.50;99.90;;;;;;5059911;28;20053;-70
2022/05/25 04:33:15;;;;;;;13.60;8.43;;;12.60;99.90;;;;;;5054806;28;20057;-70
2022/05/25 04:35:41;;;;;;;13.30;8.40;;;12.60;99.90;;;;;;5074674;28;20027;-70
2022/05/25 04:38:07;;;;;;;16.65;8.80;;;12.60;99.90;;;;;;5074989;28;20064;-70
2022/05/25 04:40:37;;;;;;;15.48;9.38;;;12.60;99.90;;;;;;5073438;28;20024;-70
2022/05/25 04:43:08;;;;;;;16.15;8.95;;;12.60;99.90;;;;;;5074076;28;20103;-70
2022/05/25 04:45:36;;;;;;;17.23;9.35;;;12.50;99.90;;;;;;5074167;28;20032;-70
2022/05/25 04:48:02;;;;;;;14.75;9.40;;;12.50;99.90;;;;;;5066093;28;20032;-70
2022/05/25 04:50:33;;;;;;;15.35;8.75;;;12.60;99.90;;;;;;5054491;28;20025;-69
2022/05/25 04:52:59;;;;;;;15.50;8.95;;;12.60;99.90;;;;;;5054803;28;20045;-69
2022/05/25 04:58:19;;;;;;;13.55;10.07;;;12.60;99.90;;;;;;5054855;28;20083;-69
2022/05/25 05:00:44;;;;;;;21.10;10.23;;;12.60;99.90;;;;;;5054407;28;20481;-70
2022/05/25 05:03:10;;;;;;;15.38;9.07;;;12.60;99.90;;;;;;5064219;28;20031;-70
2022/05/25 05:05:36;;;;;;;13.30;8.40;;;12.60;99.90;;;;;;5054172;28;20033;-69
2022/05/25 05:08:01;;;;;;;13.18;9.10;;;12.60;99.90;;;;;;5053587;28;20029;-67
2022/05/25 05:10:27;;;;;;;12.93;8.55;;;12.60;99.90;;;;;;5071737;28;20034;-70
2022/05/25 05:12:52;;;;;;;17.35;10.00;;;12.60;99.90;;;;;;5072463;28;20040;-69
2022/05/25 05:15:18;;;;;;;16.67;9.48;;;12.60;99.90;;;;;;5073754;28;20032;-69
2022/05/25 05:17:44;;;;;;;14.60;8.45;;;12.60;99.90;;;;;;5073820;28;20029;-70
2022/05/25 05:20:10;;;;;;;17.40;9.95;;;12.60;99.90;;;;;;5073655;28;20079;-70
2022/05/25 05:22:36;;;;;;;14.80;9.32;;;12.70;99.90;;;;;;5073804;28;20013;-70
2022/05/25 05:25:02;;;;;;;15.27;9.95;;;12.60;99.90;;;;;;5073146;28;20059;-70
2022/05/25 05:27:28;;;;;;;14.32;8.95;;;12.70;99.90;;;;;;5072977;28;20029;-70
2022/05/25 05:29:58;;;;;;;16.23;9.55;;;12.70;99.90;;;;;;5073963;28;20070;-70
2022/05/25 05:32:25;;;;;;;13.32;9.77;;;12.70;99.90;;;;;;5072922;28;20013;-70
2022/05/25 05:34:51;;;;;;;16.20;9.00;;;12.70;99.90;;;;;;5061802;28;20029;-70
2022/05/25 05:37:22;;;;;;;13.65;8.38;;;12.80;99.90;;;;;;5053710;28;20047;-70
2022/05/25 05:39:51;;;;;;;16.90;9.57;;;12.70;99.90;;;;;;5053681;28;20070;-70
2022/05/25 05:42:19;;;;;;;17.88;9.52;;;12.70;99.90;;;;;;5057352;28;20029;-70
2022/05/25 05:44:52;;;;;;;17.45;9.57;;;12.80;99.90;;;;;;5061859;28;20047;-70
2022/05/25 05:47:26;;;;;;;15.15;10.00;;;12.80;99.90;;;;;;5052171;28;20025;-69
2022/05/25 05:49:52;;;;;;;16.48;9.52;;;12.80;99.90;;;;;;5053529;28;20029;-70
2022/05/25 05:52:18;;;;;;;18.42;9.23;;;12.90;99.90;;;;;;5053493;28;20017;-69
2022/05/25 05:54:44;;;;;;;16.05;9.40;;;12.80;99.90;;;;;;5052022;28;20025;-70
2022/05/25 05:57:11;;;;;;;12.73;7.50;;;12.80;99.90;;;;;;5052100;28;20040;-70
2022/05/25 05:59:38;;;;;;;14.57;8.15;;;12.80;99.90;;;;;;5065092;28;20427;-70
2022/05/25 06:02:06;;;;;;;18.33;8.25;;;12.90;99.90;;;;;;5065282;28;20017;-69
2022/05/25 06:04:31;;;;;;;12.27;8.05;;;12.90;99.90;;;;;;5061820;28;20072;-69
2022/05/25 06:06:57;;;;;;;10.73;6.57;;;12.90;99.90;;;;;;5061430;28;20048;-69
2022/05/25 06:09:23;;;;;;;11.93;7.93;;;13.00;99.90;;;;;;5063095;28;20016;-70
2022/05/25 06:11:48;;;;;;;12.88;7.70;;;13.10;99.90;;;;;;5062422;28;20479;-69
2022/05/25 06:14:14;;;;;;;15.68;7.55;;;13.10;99.90;;;;;;5063703;28;20085;-70
2022/05/25 06:19:27;;;;;;;10.43;7.78;;;13.10;99.90;;;;;;5057554;28;20468;-71
2022/05/25 06:22:05;;;;;;;12.52;7.43;;;13.30;99.90;;;;;;5055598;28;20123;-70
2022/05/25 06:24:39;;;;;;;14.95;6.95;;;13.20;99.90;;;;;;5052395;28;20037;-70
2022/05/25 06:27:08;;;;;;;12.27;6.90;;;13.30;99.90;;;;;;5062494;28;20047;-69
2022/05/25 06:29:37;;;;;;;14.75;7.30;;;13.30;99.90;;;;;;5061299;28;20078;-69
2022/05/25 06:32:04;;;;;;;11.45;8.00;;;13.30;99.90;;;;;;5060873;28;20473;-70
2022/05/25 06:34:29;;;;;;;14.15;7.80;;;13.40;99.90;;;;;;5060846;28;20032;-69
2022/05/25 06:36:55;;;;;;;14.10;7.53;;;13.40;99.90;;;;;;5060316;28;20021;-70
2022/05/25 06:39:21;;;;;;;16.10;7.32;;;13.50;99.90;;;;;;5063817;28;20469;-70
2022/05/25 06:41:46;;;;;;;12.75;7.70;;;13.70;99.90;;;;;;5072360;28;20028;-70
2022/05/25 06:44:12;;;;;;;12.98;8.05;;;13.70;99.90;;;;;;5072591;28;20072;-70
2022/05/25 06:46:38;;;;;;;12.07;7.70;;;13.80;99.90;;;;;;5064721;28;20024;-70
2022/05/25 06:49:03;;;;;;;12.85;7.15;;;13.90;99.90;;;;;;5044398;28;20054;-70
2022/05/25 06:51:31;;;;;;;15.13;7.25;;;14.00;99.90;;;;;;5061745;28;20032;-70
2022/05/25 06:53:57;;;;;;;11.73;7.63;;;14.20;99.90;;;;;;5064941;28;20411;-70
2022/05/25 06:56:24;;;;;;;14.95;7.40;;;14.40;99.90;;;;;;5063338;28;20440;-70
2022/05/25 06:58:54;;;;;;;16.17;8.15;;;14.50;99.90;;;;;;5061924;28;20048;-70
2022/05/25 07:01:20;;;;;;;14.60;7.20;;;14.50;99.90;;;;;;5055913;28;20071;-71
2022/05/25 07:03:46;;;;;;;16.55;7.55;;;14.40;99.90;;;;;;5065345;28;20024;-70
2022/05/25 07:06:14;;;;;;;17.23;7.45;;;14.60;99.90;;;;;;5079004;28;20047;-70
2022/05/25 07:08:39;;;;;;;11.18;7.40;;;14.60;99.90;;;;;;5081119;28;20477;-70
2022/05/25 07:11:06;;;;;;;15.43;6.18;;;14.50;99.90;;;;;;5090954;28;20024;-70
2022/05/25 07:13:32;;;;;;;7.75;6.05;;;14.60;99.90;;;;;;5070239;28;20484;-70
2022/05/25 07:16:01;;;;;;;9.45;6.38;;;14.80;99.90;;;;;;5059638;28;20051;-70
2022/05/25 07:18:28;;;;;;;15.85;7.50;;;14.90;99.90;;;;;;5065691;28;20417;-70
2022/05/25 07:20:57;;;;;;;10.80;6.45;;;15.00;99.90;;;;;;5065394;28;20041;-69
2022/05/25 07:23:24;;;;;;;13.45;6.50;;;14.90;99.90;;;;;;5064773;28;20092;-70
2022/05/25 07:25:49;;;;;;;9.65;6.00;;;14.80;99.90;;;;;;5064474;28;20041;-69
2022/05/25 07:28:15;;;;;;;12.23;6.10;;;14.90;99.90;;;;;;5065319;28;20090;-70
2022/05/25 07:30:41;;;;;;;12.25;6.43;;;15.10;99.90;;;;;;5065005;28;20058;-70
2022/05/25 07:33:06;;;;;;;11.90;7.18;;;15.30;99.90;;;;;;5065014;28;20016;-69
2022/05/25 07:35:32;;;;;;;13.55;6.30;;;15.50;99.90;;;;;;5063400;28;20081;-68
2022/05/25 07:37:58;;;;;;;15.07;5.68;;;15.60;99.90;;;;;;5065989;28;20488;-70
2022/05/25 07:40:33;;;;;;;14.32;6.07;;;15.90;99.90;;;;;;5066156;28;20032;-69
2022/05/25 07:43:03;;;;;;;8.30;5.03;;;16.00;99.90;;;;;;5065997;28;20033;-69
2022/05/25 07:45:29;;;;;;;11.65;5.30;;;16.00;99.90;;;;;;5065136;28;20563;-69
2022/05/25 07:47:55;;;;;;;7.85;5.20;;;16.10;99.90;;;;;;5062256;28;20111;-69
2022/05/25 07:50:22;;;;;;;10.75;4.47;;;16.20;99.90;;;;;;5064475;28;20024;-69
2022/05/25 07:52:52;;;;;;;8.00;4.00;;;16.40;99.90;;;;;;5066108;28;20025;-69
2022/05/25 07:55:18;;;;;;;8.60;3.65;;;16.60;99.90;;;;;;5065074;28;20103;-69
2022/05/25 07:57:43;;;;;;;11.52;3.95;;;16.60;99.90;;;;;;5065113;28;20580;-70
2022/05/25 08:00:10;;;;;;;10.77;3.92;;;16.60;99.90;;;;;;5065552;28;20147;-70
2022/05/25 08:05:43;;;;;;;8.27;3.63;;;16.80;99.90;;;;;;5062602;28;20188;-70
2022/05/25 08:08:13;;;;;;;4.68;3.53;;;16.80;99.90;;;;;;5065577;28;20025;-70
2022/05/25 08:10:42;;;;;;;14.43;3.17;;;17.00;99.90;;;;;;5059770;28;20032;-70
2022/05/25 08:13:08;;;;;;;8.02;3.25;;;17.30;99.90;;;;;;5059640;28;20028;-69
2022/05/25 08:15:33;;;;;;;5.45;2.88;;;17.40;99.90;;;;;;5057583;28;20053;-70
2022/05/25 08:18:00;;;;;;;7.93;3.05;;;17.30;99.90;;;;;;5054655;28;20109;-70
2022/05/25 08:20:25;;;;;;;5.95;2.80;;;17.30;99.90;;;;;;5064566;28;20060;-70
2022/05/25 08:22:52;;;;;;;5.10;2.28;;;17.40;99.90;;;;;;5065802;28;20110;-70
2022/05/25 08:25:19;;;;;;;5.88;2.72;;;17.70;99.90;;;;;;5063229;28;20068;-70
2022/05/25 08:27:45;;;;;;;5.43;2.35;;;17.90;99.90;;;;;;5065526;28;20017;-70
2022/05/25 08:30:20;;;;;;;5.60;2.45;;;18.10;99.90;;;;;;5064174;28;20495;-70
2022/05/25 08:32:46;;;;;;;3.97;1.88;;;18.30;99.90;;;;;;5063153;28;20036;-70
2022/05/25 08:35:13;;;;;;;5.63;1.83;;;18.50;99.90;;;;;;5063362;28;20058;-70
2022/05/25 08:37:41;;;;;;;3.30;1.63;;;18.70;99.90;;;;;;5064505;28;20460;-70
2022/05/25 08:40:08;;;;;;;8.00;2.20;;;18.90;99.90;;;;;;5064583;28;20029;-70
2022/05/25 08:42:45;;;;;;;5.82;1.70;;;19.00;99.90;;;;;;5063255;28;20530;-69
2022/05/25 08:45:12;;;;;;;3.90;1.35;;;19.00;99.90;;;;;;5062871;28;20432;-69
2022/05/25 08:47:44;;;;;;;4.65;1.80;;;19.10;99.90;;;;;;5063492;28;20461;-69
2022/05/25 08:50:10;;;;;;;3.50;1.95;;;19.30;99.90;;;;;;5061288;28;20070;-69
2022/05/25 08:52:36;;;;;;;4.07;1.73;;;19.50;99.90;;;;;;5062890;28;20064;-69
2022/05/25 08:55:06;;;;;;;3.33;1.95;;;19.70;99.90;;;;;;5064054;28;20028;-69
2022/05/25 08:57:42;;;;;;;3.15;1.85;;;19.60;99.90;;;;;;5060065;28;20019;-70
2022/05/25 09:00:14;;;;;;;3.55;1.90;;;19.50;99.90;;;;;;5062352;28;20420;-70
2022/05/25 09:02:45;;;;;;;3.42;1.50;;;19.60;99.90;;;;;;5054816;28;20029;-69
2022/05/25 09:05:28;;;;;;;2.90;1.30;;;19.80;99.90;;;;;;5063469;28;20052;-70
2022/05/25 09:08:05;;;;;;;;;;;19.80;99.90;;;;;;5062785;28;20023;-68
2022/05/25 09:10:44;;;;;;;2.55;1.58;;;20.00;99.90;;;;;;5078318;28;20341;-70
2022/05/25 09:13:18;;;;;;;3.95;1.55;;;20.30;99.90;;;;;;5063782;28;20570;-69
2022/05/25 09:18:39;;;;;;;2.22;1.42;;;20.40;99.90;;;;;;5062659;28;20078;-69
2022/05/25 09:21:06;;;;;;;4.78;1.55;;;20.10;99.90;;;;;;5064118;28;20077;-70
2022/05/25 09:23:33;;;;;;;4.28;1.45;;;20.20;99.90;;;;;;5060507;28;20037;-70
2022/05/25 09:25:59;;;;;;;3.53;1.55;;;20.10;99.90;;;;;;5060484;28;20064;-70
2022/05/25 09:28:42;;;;;;;2.55;1.23;;;20.20;99.90;;;;;;5063583;28;20047;-69
2022/05/25 09:31:11;;;;;;;2.28;0.98;;;20.20;99.90;;;;;;5060680;28;20043;-70
2022/05/25 09:33:50;;;;;;;4.13;1.10;;;20.60;99.90;;;;;;5062900;28;20012;-70
2022/05/25 09:36:47;;;;;;;2.80;0.93;;;20.80;99.90;;;;;;5064417;28;20036;-69
2022/05/25 09:39:16;;;;;;;3.90;1.35;;;21.10;99.90;;;;;;5060303;28;20112;-69
2022/05/25 09:41:45;;;;;;;5.15;0.93;;;21.20;99.90;;;;;;5062521;28;20032;-69
2022/05/25 09:44:16;;;;;;;2.15;1.00;;;21.30;99.90;;;;;;5063357;28;20094;-70
2022/05/25 09:46:47;;;;;;;3.28;0.90;;;21.10;99.90;;;;;;5063426;28;20037;-70
2022/05/25 09:49:27;;;;;;;4.22;1.33;;;21.00;99.90;;;;;;5060486;28;22457;-70
2022/05/25 09:51:54;;;;;;;2.78;1.15;;;20.70;99.90;;;;;;5064157;28;20074;-70
2022/05/25 09:54:39;;;;;;;1.45;0.68;;;20.80;99.90;;;;;;5062520;28;20020;-70
2022/05/25 09:57:24;;;;;;;2.20;0.88;;;20.80;99.90;;;;;;5063174;28;20366;-70
2022/05/25 09:59:56;;;;;;;2.55;0.90;;;21.00;99.90;;;;;;5061401;28;20605;-69
2022/05/25 10:02:48;;;;;;;3.70;1.38;;;20.70;99.80;;;;;;5060939;28;20028;-70
2022/05/25 10:05:23;;;;;;;1.47;1.00;;;20.60;99.90;;;;;;5061085;28;20049;-70
2022/05/25 10:07:56;;;;;;;2.25;0.73;;;20.60;99.90;;;;;;5058052;28;20306;-70
2022/05/25 10:10:55;;;;;;;3.53;0.80;;;21.00;99.90;;;;;;5063437;28;20028;-70
2022/05/25 10:13:25;;;;;;;5.22;0.70;;;21.40;99.90;;;;;;5062228;28;20106;-70
2022/05/25 10:15:53;;;;;;;1.67;0.57;;;21.40;99.90;;;;;;5063385;28;20028;-70
2022/05/25 10:18:41;;;;;;;2.30;1.00;;;21.60;99.90;;;;;;5063111;28;20427;-70
2022/05/25 10:21:13;;;;;;;3.95;0.80;;;21.20;99.80;;;;;;5063225;28;20473;-69
2022/05/25 10:23:43;;;;;;;;;;;21.50;99.90;;;;;;5062249;28;20062;-69
2022/05/25 10:26:19;;;;;;;3.47;0.90;;;21.70;99.70;;;;;;5063215;28;19928;-69
2022/05/25 10:28:54;;;;;;;1.73;0.50;;;21.60;98.30;;;;;;5062749;28;20032;-69
2022/05/25 10:37:18;;;;;;;6.03;1.17;;;21.00;98.60;;;;;;5062731;28;20045;-69
2022/05/25 10:39:53;;;;;;;1.92;0.60;;;20.90;98.40;;;;;;5057888;28;20041;-69
2022/05/25 10:42:23;;;;;;;2.33;1.10;;;20.80;98.50;;;;;;5071444;28;20111;-69
2022/05/25 10:44:57;;;;;;;2.42;0.65;;;20.80;98.30;;;;;;5062397;28;20118;-69
2022/05/25 10:47:34;;;;;;;3.30;1.00;;;20.60;99.00;;;;;;5060556;28;20024;-69
2022/05/25 10:50:03;;;;;;;3.10;0.60;;;20.50;99.00;;;;;;5059179;28;20039;-69
2022/05/25 10:52:45;;;;;;;1.88;0.60;;;20.40;98.10;;;;;;5070406;28;20419;-69
2022/05/25 10:55:10;;;;;;;1.75;0.40;;;20.70;98.80;;;;;;5061305;28;20036;-69
2022/05/25 10:57:53;;;;;;;3.40;1.15;;;21.30;98.90;;;;;;5061849;28;20465;-69
2022/05/25 11:00:34;;;;;;;2.40;0.65;;;21.20;98.30;;;;;;5063585;28;20028;-69
2022/05/25 11:03:20;;;;;;;2.88;0.55;;;21.40;98.10;;;;;;5060004;28;20035;-70
2022/05/25 11:05:55;;;;;;;2.20;0.70;;;21.30;97.70;;;;;;5064552;28;20049;-67
2022/05/25 11:08:27;;;;;;;1.98;0.65;;;21.50;98.00;;;;;;5062074;28;20056;-70
2022/05/25 11:11:00;;;;;;;2.58;0.60;;;21.30;97.60;;;;;;5060422;28;20025;-70
2022/05/25 11:13:43;;;;;;;2.65;0.70;;;21.10;97.80;;;;;;5059342;28;20029;-69
2022/05/25 11:16:29;;;;;;;3.95;0.50;;;21.10;96.80;;;;;;5061599;28;20040;-69
2022/05/25 11:19:22;;;;;;;2.55;0.77;;;21.30;97.10;;;;;;5059775;28;20350;-70
2022/05/25 11:22:19;;;;;;;;;;;21.30;96.20;;;;;;5062011;28;20029;-69
2022/05/25 11:25:04;;;;;;;2.45;0.60;;;21.20;96.50;;;;;;5035301;28;19924;-70
2022/05/25 11:28:01;;;;;;;1.45;0.57;;;21.30;97.10;;;;;;5056040;28;20028;-69
2022/05/25 11:30:39;;;;;;;2.50;0.60;;;21.50;97.70;;;;;;5059659;28;20044;-70
2022/05/25 11:33:42;;;;;;;2.30;0.60;;;21.80;95.70;;;;;;5058180;28;20116;-70
2022/05/25 11:36:32;;;;;;;;;;;22.10;96.30;;;;;;5061764;28;20032;-69
2022/05/25 11:39:15;;;;;;;0.68;0.55;;;22.40;95.60;;;;;;5060112;28;19915;-70
2022/05/25 11:41:43;;;;;;;;;;;22.50;95.10;;;;;;5061159;28;20033;-70
2022/05/25 11:44:30;;;;;;;2.35;0.47;;;22.50;96.00;;;;;;5062494;28;19920;-69
2022/05/25 11:47:20;;;;;;;1.38;0.60;;;22.60;94.30;;;;;;5058651;28;20028;-69
2022/05/25 11:50:01;;;;;;;2.72;0.47;;;22.80;94.80;;;;;;5055585;28;20049;-69
2022/05/25 11:52:59;;;;;;;0.90;0.40;;;22.60;92.00;;;;;;5063505;28;20060;-69
2022/05/25 11:55:41;;;;;;;2.65;0.70;;;22.70;91.90;;;;;;5063421;28;20048;-69
2022/05/25 11:58:44;;;;;;;2.57;0.43;;;22.60;92.20;;;;;;5065865;28;20021;-69
2022/05/25 12:01:44;;;;;;;2.47;0.93;;;22.40;93.40;;;;;;5065064;28;20159;-69
2022/05/25 12:04:31;;;;;;;2.65;1.33;;;22.00;92.10;;;;;;5064083;28;20079;-69
2022/05/25 12:07:21;;;;;;;0.98;0.60;;;22.30;94.00;;;;;;5065861;28;20039;-69
2022/05/25 12:10:11;;;;;;;2.63;0.60;;;22.60;93.50;;;;;;5062924;28;20041;-69
2022/05/25 12:13:17;;;;;;;2.58;0.55;;;22.70;92.50;;;;;;5056785;28;20491;-69
2022/05/25 12:15:42;;;;;;;2.78;0.70;;;22.90;92.40;;;;;;5062434;28;20052;-69
2022/05/25 12:18:20;;;;;;;1.17;0.47;;;22.70;93.00;;;;;;5068015;28;20043;-69
2022/05/25 12:21:02;;;;;;;4.05;0.50;;;22.60;92.00;;;;;;5067043;28;20587;-68
2022/05/25 12:23:37;;;;;;;1.97;0.63;;;22.90;92.90;;;;;;5067016;28;20009;-68
2022/05/25 12:26:26;;;;;;;2.45;0.50;;;22.60;93.10;;;;;;5066468;28;20059;-69
2022/05/25 12:29:05;;;;;;;1.65;0.60;;;22.60;93.30;;;;;;5066165;28;20028;-69
2022/05/25 12:31:32;;;;;;;2.92;0.82;;;22.60;92.50;;;;;;5068542;28;20074;-69
2022/05/25 12:33:58;;;;;;;3.30;0.57;;;22.80;92.70;;;;;;5068502;28;20023;-69
2022/05/25 12:36:25;;;;;;;2.92;0.50;;;22.90;91.80;;;;;;5066007;28;20055;-69
2022/05/25 12:38:53;;;;;;;2.25;0.65;;;22.80;93.30;;;;;;5071880;28;20491;-69
2022/05/25 12:41:30;;;;;;;1.23;0.40;;;23.00;92.50;;;;;;5062880;28;20039;-69
2022/05/25 12:43:56;;;;;;;2.47;0.50;;;22.90;92.10;;;;;;5062710;28;20033;-69
2022/05/25 12:49:38;;;;;;;3.13;0.77;;;22.50;91.70;;;;;;5062244;28;20031;-68
2022/05/25 12:52:26;;;;;;;1.73;0.80;;;22.30;92.90;;;;;;5063306;28;20012;-69
2022/05/25 12:54:53;;;;;;;7.50;0.57;;;22.10;92.80;;;;;;5063354;28;20108;-69
2022/05/25 12:57:37;;;;;;;2.60;0.40;;;22.00;93.10;;;;;;5063834;28;20024;-69
2022/05/25 13:00:15;;;;;;;0.90;0.35;;;21.90;93.10;;;;;;5058821;28;20547;-69
2022/05/25 13:02:41;;;;;;;1.50;0.50;;;21.80;92.60;;;;;;5063230;28;20029;-68
2022/05/25 13:05:08;;;;;;;3.08;0.70;;;21.90;93.30;;;;;;5064210;28;20094;-69
2022/05/25 13:07:47;;;;;;;2.20;0.38;;;22.20;92.20;;;;;;5063379;28;20027;-69
2022/05/25 13:10:21;;;;;;;2.38;0.60;;;22.60;93.80;;;;;;5061349;28;20082;-69
2022/05/25 13:12:50;;;;;;;2.22;0.80;;;22.90;94.50;;;;;;5063153;28;20040;-68
2022/05/25 13:15:17;;;;;;;3.05;1.00;;;22.90;93.90;;;;;;5063933;28;20047;-68
2022/05/25 13:17:55;;;;;;;3.80;0.70;;;22.70;92.80;;;;;;5064373;28;20061;-68
2022/05/25 13:20:27;;;;;;;3.00;0.60;;;22.60;92.90;;;;;;5063594;28;20116;-68
2022/05/25 13:22:55;;;;;;;2.85;0.90;;;22.80;92.40;;;;;;5064931;28;20036;-69
2022/05/25 13:25:55;;;;;;;1.67;0.60;;;23.00;92.50;;;;;;5062557;28;20139;-69
2022/05/25 13:28:24;;;;;;;4.15;0.82;;;22.90;91.10;;;;;;5064124;28;20008;-69
2022/05/25 13:31:32;;;;;;;2.08;0.57;;;22.70;91.70;;;;;;5063924;28;20036;-69